Aérodrome :
LOGIN :

S'inscrire | Disclaimer

   EN    FR    IT 

 










Légende :    VFR   VFR Marginal   IFR   IFR Intensif   IFR Très Intensif
Visi : 
Plafond : 
>= 8 km
>= 3000ft
5 à 8 km
1000 à 3000 ft
1500m à 5 km
500 à 1000 ft
800 à 1500m
200 à 500 ft
< 800m
< 200 ft
Symboles :   Orages  Brouillard  Fortes neiges  Fortes précipitations  Vent > 20 kt
SIGMETs :   Divers  Orages  Givrage  Turbulence  Onde Orograph.  Cendres Volcan.







- Altitude de l'aérodrome : 1276 ft
- Code IATA : STR


EDDS - Stuttgart

DERNIER METAR :
  • 251150Z 28004KT 250V350 9999 SCT035 19/10 Q1023 NOSIG

METARs EXPIRÉS :
  • 251120Z 31005KT 240V020 9999 FEW035 BKN055 18/10 Q1023 NOSIG
  • 251050Z 34007KT 290V020 9999 FEW032 BKN052 17/10 Q1023 NOSIG
  • 251020Z 34005KT 310V020 9999 FEW030 BKN050 17/11 Q1023 NOSIG
  • 250950Z 35007KT 300V030 9999 SCT026 SCT050 17/11 Q1023 NOSIG
  • 250920Z 35006KT 290V030 9999 SCT020 BKN026 16/11 Q1023 NOSIG

TAF TAF EDDS
Valide du 25 à 12h jusqu'au 26 à 12h UTC


251100Z 2512/2612 35005KT 9999 SCT045
BECMG 2518/2521 VRB03KT
BECMG 2606/2609 03005KT
Pas de NOTAMs connus pour ce terrain.



MET'MAP, la Météo Aéronautique d'un coup d'oeil ! - Copyright ORBIFLY Décembre 2007 - Disclaimer

ORBIFLY MET'MAP TEAM :

Programmation & Développement : Alexandra Zaïnal
Conception & Développement : Baudouin d'Aumeries
Co-Programmation & Développement : Marc-Olivier Méhu
Soutien technique & logistique : Manuel Goepfert

Contact : metmap@orbifly.com




SOURCES & CREDITS :

   NOAA